KPWA/PWA METAR and TAF weather

Enter ICAO airport designator
Station Type Date Time Source
KPWA METAR 2019/06/17 05:53 UTC NOAA

KPWA 170553Z AUTO 33005KT 10SM CLR 21/18 A2987 RMK AO2 SLP103 60000 T02060183 10228 20200 402670183 50003 $


Station Type Date Time Source
KPWA Decoded METAR 2019/06/17 05:53 UTC NOAA

WILEY POST, OK, United States (KPWA) 35-32N 97-39W 397M
Jun 17, 2019 - 01:53 AM EDT / 2019.06.17 0553 UTC
Wind: from the NNW (330 degrees) at 6 MPH (5 KT):0
Visibility: 10 mile(s):0
Sky conditions: clear
Temperature: 69.1 F (20.6 C)
Dew Point: 64.9 F (18.3 C)
Relative Humidity: 86%
Pressure (altimeter): 29.87 in. Hg (1011 hPa)
Pressure tendency: 0.01 inches (0.3 hPa) higher than three hours ago
ob: KPWA 170553Z AUTO 33005KT 10SM CLR 21/18 A2987 RMK AO2 SLP103 60000 T02060183 10228 20200 402670183 50003
cycle: 6

Station Type Date Time Source
KPWA TAF UTC NOAA

Error!

Example: see airport list